Time;durP1;ratioP1;P1;durP2;ratioP2;P2;SDS_P1;SDS_P2;PMS_P1;PMS_P2;Temp;Humidity;BMP_temperature;BMP_pressure;BME280_temperature;BME280_humidity;BME280_pressure;Samples;Min_cycle;Max_cycle;Signal;HPM_P1;HPM_P2
2021/10/19 00:00:33;;;;;;;16.80;12.23;;;;;;;-142.75;100.00;77056.53;4992782;28;20089;-68
2021/10/19 00:02:59;;;;;;;22.52;13.80;;;;;;;-142.75;100.00;77054.56;4992630;28;20501;-68
2021/10/19 00:05:24;;;;;;;;;;;;;;;-142.75;100.00;77046.69;4992853;28;20042;-68
2021/10/19 00:07:50;;;;;;;19.35;12.93;;;;;;;-142.75;100.00;77042.75;4992617;28;19913;-67
2021/10/19 00:10:16;;;;;;;18.65;13.38;;;;;;;-142.75;100.00;77038.81;4991343;28;20105;-67
2021/10/19 00:12:42;;;;;;;19.30;12.65;;;;;;;-142.75;100.00;77032.91;4992454;28;20049;-67
2021/10/19 00:15:09;;;;;;;21.58;13.85;;;;;;;-142.75;100.00;77032.91;4991024;28;20046;-67
2021/10/19 00:17:36;;;;;;;19.60;12.55;;;;;;;-142.75;100.00;77034.88;4992341;28;20053;-67
2021/10/19 00:20:03;;;;;;;17.38;12.07;;;;;;;-142.75;100.00;77042.75;4992490;28;20034;-67
2021/10/19 00:22:28;;;;;;;23.13;13.80;;;;;;;-142.75;100.00;77040.78;4990953;28;20038;-68
2021/10/19 00:24:53;;;;;;;18.13;12.98;;;;;;;-142.75;100.00;77032.91;4992121;28;20038;-68
2021/10/19 00:27:18;;;;;;;18.25;12.10;;;;;;;-142.75;100.00;77027.00;4992278;28;20077;-68
2021/10/19 00:29:44;;;;;;;;;;;;;;;-142.75;100.00;77027.00;4992726;28;20026;-68
2021/10/19 00:32:09;;;;;;;20.10;13.05;;;;;;;-142.75;100.00;77023.06;4992074;28;20346;-68
2021/10/19 00:34:34;;;;;;;;;;;;;;;-142.75;100.00;77025.03;4991165;28;20476;-68
2021/10/19 00:36:59;;;;;;;19.02;13.38;;;;;;;-142.75;100.00;77025.03;4992124;28;19918;-68
2021/10/19 00:39:25;;;;;;;18.58;12.30;;;;;;;-142.75;100.00;77027.00;4992180;28;20030;-68
2021/10/19 00:41:50;;;;;;;;;;;;;;;-142.75;100.00;77034.88;4992394;28;20117;-67
2021/10/19 00:44:15;;;;;;;20.88;12.65;;;;;;;-142.75;100.00;77042.75;4991695;28;19913;-68
2021/10/19 00:46:42;;;;;;;;;;;;;;;-142.75;100.00;77042.75;4992481;28;20030;-68
2021/10/19 00:49:07;;;;;;;19.85;14.38;;;;;;;-142.75;100.00;77044.72;4991809;28;20406;-67
2021/10/19 00:51:33;;;;;;;20.70;13.10;;;;;;;-142.75;100.00;77046.69;4990897;28;20065;-68
2021/10/19 00:53:58;;;;;;;;;;;;;;;-142.75;100.00;77036.84;4991968;28;20033;-67
2021/10/19 00:56:24;;;;;;;18.42;13.60;;;;;;;-142.75;100.00;77044.72;4991733;28;20280;-68
2021/10/19 00:58:49;;;;;;;23.40;14.57;;;;;;;-142.75;100.00;77052.59;4991746;28;20530;-67
2021/10/19 01:01:14;;;;;;;;;;;;;;;-142.75;100.00;77042.75;4990905;28;20053;-67
2021/10/19 01:03:40;;;;;;;21.77;14.00;;;;;;;-142.75;100.00;77046.69;4991636;28;19922;-67
2021/10/19 01:06:06;;;;;;;;;;;;;;;-142.75;100.00;77046.69;4990581;28;20018;-67
2021/10/19 01:08:31;;;;;;;24.25;15.25;;;;;;;-142.75;100.00;77050.63;4991677;28;20367;-67
2021/10/19 01:10:57;;;;;;;22.73;16.05;;;;;;;-142.75;100.00;77046.69;4991562;28;20033;-67
2021/10/19 01:13:23;;;;;;;21.80;15.20;;;;;;;-142.75;100.00;77048.66;4990259;28;20030;-67
2021/10/19 01:15:49;;;;;;;22.20;15.38;;;;;;;-142.75;100.00;77048.66;4989900;28;20512;-67
2021/10/19 01:18:17;;;;;;;23.92;16.52;;;;;;;-142.75;100.00;77054.56;4991536;28;20052;-67
2021/10/19 01:20:43;;;;;;;25.42;15.40;;;;;;;-142.75;100.00;77040.78;4991541;28;20054;-67
2021/10/19 01:23:10;;;;;;;23.90;16.33;;;;;;;-142.75;100.00;77058.50;4991288;28;20628;-68
2021/10/19 01:25:36;;;;;;;22.85;17.25;;;;;;;-142.75;100.00;77054.56;4991180;28;20065;-67
2021/10/19 01:28:07;;;;;;;26.13;16.88;;;;;;;-142.75;100.00;77046.69;4991127;28;20073;-67
2021/10/19 01:30:32;;;;;;;24.17;16.80;;;;;;;-142.75;100.00;77058.50;4991168;28;20056;-67
2021/10/19 01:32:58;;;;;;;26.15;17.45;;;;;;;-142.75;100.00;77062.44;4991277;28;20468;-67
2021/10/19 01:35:33;;;;;;;;;;;;;;;-142.75;100.00;77046.69;4991503;28;21419;-67
2021/10/19 01:37:59;;;;;;;25.98;17.50;;;;;;;-142.75;100.00;77058.50;4991302;28;19913;-67
2021/10/19 01:40:24;;;;;;;26.27;17.88;;;;;;;-142.75;100.00;77052.59;4990044;28;20048;-67
2021/10/19 01:42:49;;;;;;;;;;;;;;;-142.75;100.00;77040.78;4991624;28;20046;-67
2021/10/19 01:45:17;;;;;;;29.20;19.35;;;;;;;-142.75;100.00;77042.75;4989672;28;19917;-68
2021/10/19 01:47:43;;;;;;;26.33;19.40;;;;;;;-142.75;100.00;77046.69;4991207;28;20546;-67
2021/10/19 01:50:09;;;;;;;33.60;21.08;;;;;;;-142.75;100.00;77044.72;4991291;28;20026;-67
2021/10/19 01:52:35;;;;;;;31.35;21.80;;;;;;;-142.75;100.00;77030.94;4989839;28;20553;-67
2021/10/19 01:55:02;;;;;;;31.02;22.38;;;;;;;-142.75;100.00;77042.75;4990853;28;20027;-67
2021/10/19 01:57:27;;;;;;;29.40;22.13;;;;;;;-142.75;100.00;77038.81;4991115;28;20022;-67
2021/10/19 01:59:53;;;;;;;29.58;22.42;;;;;;;-142.75;100.00;77050.63;4991133;28;20514;-67
2021/10/19 02:02:18;;;;;;;33.17;23.02;;;;;;;-142.75;100.00;77046.69;4989794;28;20030;-67
2021/10/19 02:04:43;;;;;;;;;;;;;;;-142.75;100.00;77038.81;4991350;28;20034;-67
2021/10/19 02:07:08;;;;;;;33.88;25.13;;;;;;;-142.75;100.00;77036.84;4989731;28;19913;-67
2021/10/19 02:09:34;;;;;;;32.80;24.05;;;;;;;-142.75;100.00;77034.88;4991111;28;20097;-67
2021/10/19 02:11:59;;;;;;;36.17;24.92;;;;;;;-142.75;100.00;77023.06;4989781;28;20036;-67
2021/10/19 02:14:24;;;;;;;;;;;;;;;-142.75;100.00;77011.25;4991094;28;20033;-67
2021/10/19 02:16:49;;;;;;;34.38;24.52;;;;;;;-142.75;100.00;77017.16;4991006;28;20515;-67
2021/10/19 02:19:15;;;;;;;;;;;;;;;-142.75;100.00;77003.38;4991414;28;20034;-67
2021/10/19 02:21:40;;;;;;;30.88;23.35;;;;;;;-142.75;100.00;77015.19;4990935;28;20012;-67
2021/10/19 02:24:05;;;;;;;36.30;25.55;;;;;;;-142.75;100.00;77003.38;4990711;28;20459;-67
2021/10/19 02:26:30;;;;;;;;;;;;;;;-142.75;100.00;77001.41;4991338;28;20011;-67
2021/10/19 02:28:56;;;;;;;33.90;25.80;;;;;;;-142.75;100.00;76995.50;4990870;28;19914;-67
2021/10/19 02:31:21;;;;;;;;;;;;;;;-142.75;100.00;76995.50;4991220;28;20109;-67
2021/10/19 02:33:46;;;;;;;36.65;26.42;;;;;;;-142.75;100.00;76999.44;4990573;28;19920;-69
2021/10/19 02:36:11;;;;;;;;;;;;;;;-142.75;100.00;76991.56;4991193;28;20037;-67
2021/10/19 02:38:36;;;;;;;34.97;26.33;;;;;;;-142.75;100.00;76991.56;4990806;28;19913;-67
2021/10/19 02:41:02;;;;;;;;;;;;;;;-142.75;100.00;76981.72;4992398;28;20045;-67
2021/10/19 02:43:27;;;;;;;37.05;27.35;;;;;;;-142.75;100.00;76987.63;4992795;28;19917;-67
2021/10/19 02:45:52;;;;;;;;;;;;;;;-142.75;100.00;76981.72;4994420;28;20387;-67
2021/10/19 02:48:17;;;;;;;38.95;27.25;;;;;;;-142.75;100.00;76971.88;4994069;28;19960;-68
2021/10/19 02:50:42;;;;;;;;;;;;;;;-142.75;100.00;76967.94;4994649;28;20034;-67
2021/10/19 02:53:08;;;;;;;35.20;25.98;;;;;;;-142.75;100.00;76967.94;4994044;28;19920;-67
2021/10/19 02:55:33;;;;;;;;;;;;;;;-142.75;100.00;76960.06;4992824;28;20022;-67
2021/10/19 02:57:58;;;;;;;40.33;26.67;;;;;;;-142.75;100.00;76960.06;4994017;28;20000;-67
2021/10/19 03:00:23;;;;;;;;;;;;;;;-142.75;100.00;76958.09;4993091;28;20395;-67
2021/10/19 03:02:49;;;;;;;35.78;25.85;;;;;;;-142.75;100.00;76954.16;4993957;28;19921;-67
2021/10/19 03:05:15;;;;;;;36.33;26.77;;;;;;;-142.75;100.00;76946.28;4993655;28;20037;-67
2021/10/19 03:07:40;;;;;;;38.03;27.20;;;;;;;-142.75;100.00;76936.44;4992662;28;20560;-67
2021/10/19 03:10:06;;;;;;;36.70;27.17;;;;;;;-142.75;100.00;76932.50;4993749;28;20109;-67
2021/10/19 03:12:32;;;;;;;;;;;;;;;-142.75;100.00;76924.63;4994240;28;20499;-67
2021/10/19 03:14:57;;;;;;;34.53;25.90;;;;;;;-142.75;100.00;76936.44;4993282;28;19921;-69
2021/10/19 03:17:22;;;;;;;37.53;25.75;;;;;;;-142.75;100.00;76930.53;4993796;28;20045;-67
2021/10/19 03:19:48;;;;;;;36.65;26.83;;;;;;;-142.75;100.00;76932.50;4993736;28;20027;-67
2021/10/19 03:22:13;;;;;;;;;;;;;;;-142.75;100.00;76924.63;5016385;22;20046;-72
2021/10/19 03:24:38;;;;;;;35.60;25.20;;;;;;;-142.75;100.00;76920.69;4996551;28;20051;-70
2021/10/19 03:27:04;;;;;;;;;;;;;;;-142.75;100.00;76916.75;5012225;28;20468;-70
2021/10/19 03:29:29;;;;;;;33.97;25.48;;;;;;;-142.75;100.00;76920.69;5011767;28;19913;-69
2021/10/19 03:31:54;;;;;;;;;;;;;;;-142.75;100.00;76918.72;5013323;28;20514;-70
2021/10/19 03:34:19;;;;;;;33.80;26.30;;;;;;;-142.75;100.00;76924.63;4992968;28;19921;-69
2021/10/19 03:36:45;;;;;;;36.55;26.15;;;;;;;-142.75;100.00;76922.66;4993275;28;20022;-70
2021/10/19 03:39:10;;;;;;;;;;;;;;;-142.75;100.00;76912.81;4993615;28;20022;-72
2021/10/19 03:41:35;;;;;;;29.00;23.88;;;;;;;-142.75;100.00;76912.81;4998201;28;19914;-70
2021/10/19 03:44:00;;;;;;;;;;;;;;;-142.75;100.00;76920.69;5012609;28;20446;-72
2021/10/19 03:46:26;;;;;;;32.58;24.13;;;;;;;-142.75;100.00;76920.69;4997107;28;19914;-70
2021/10/19 03:48:51;;;;;;;33.65;25.15;;;;;;;-142.75;100.00;76916.75;4993065;28;20042;-71
2021/10/19 03:51:17;;;;;;;33.05;24.65;;;;;;;-142.75;100.00;76920.69;4992440;28;20026;-70
2021/10/19 03:53:42;;;;;;;;;;;;;;;-142.75;100.00;76910.84;4992010;28;20034;-70
2021/10/19 03:56:07;;;;;;;31.10;21.70;;;;;;;-142.75;100.00;76916.75;4994410;28;19918;-69
2021/10/19 03:58:33;;;;;;;;;;;;;;;-142.75;100.00;76916.75;5011258;28;20033;-70
2021/10/19 04:00:58;;;;;;;27.80;20.33;;;;;;;-142.75;100.00;76922.66;5012368;28;19913;-71
2021/10/19 04:03:23;;;;;;;;;;;;;;;-142.75;100.00;76904.94;5005397;28;20025;-69
2021/10/19 04:05:48;;;;;;;23.48;18.90;;;;;;;-142.75;100.00;76906.91;4991285;28;20383;-71
2021/10/19 04:08:13;;;;;;;;;;;;;;;-142.75;100.00;76897.06;4997171;28;20029;-70
2021/10/19 04:10:39;;;;;;;27.38;18.92;;;;;;;-142.75;100.00;76904.94;5010047;28;20360;-70
2021/10/19 04:13:04;;;;;;;;;;;;;;;-142.75;100.00;76916.75;5012348;28;20033;-70
2021/10/19 04:15:29;;;;;;;22.95;17.67;;;;;;;-142.75;100.00;76914.78;4994808;28;19921;-70
2021/10/19 04:17:54;;;;;;;;;;;;;;;-142.75;100.00;76910.84;4992952;28;20460;-72
2021/10/19 04:20:20;;;;;;;21.63;16.88;;;;;;;-142.75;100.00;76918.72;4991247;28;19968;-70
2021/10/19 04:22:45;;;;;;;;;;;;;;;-142.75;100.00;76912.81;4992627;28;20110;-72
2021/10/19 04:25:10;;;;;;;22.77;16.65;;;;;;;-142.75;100.00;76910.84;4996535;28;20311;-69
2021/10/19 04:27:36;;;;;;;;;;;;;;;-142.75;100.00;76908.88;5012371;28;20037;-70
2021/10/19 04:30:01;;;;;;;21.95;16.38;;;;;;;-142.75;100.00;76901.00;5010595;28;19917;-68
2021/10/19 04:32:26;;;;;;;;;;;;;;;-142.75;100.00;76902.97;5001448;28;20547;-70
2021/10/19 04:34:51;;;;;;;21.90;15.82;;;;;;;-142.75;100.00;76912.81;5011607;28;19944;-70
2021/10/19 04:37:17;;;;;;;;;;;;;;;-142.75;100.00;76893.13;5008141;28;20049;-70
2021/10/19 04:39:42;;;;;;;20.15;15.18;;;;;;;-142.75;100.00;76897.06;5011807;28;20386;-69
2021/10/19 04:42:07;;;;;;;;;;;;;;;-142.75;100.00;76893.13;5011997;28;20034;-70
2021/10/19 04:44:33;;;;;;;19.70;15.00;;;;;;;-142.75;100.00;76899.03;5011318;28;19921;-71
2021/10/19 04:46:58;;;;;;;;;;;;;;;-142.75;100.00;76885.25;5010640;28;20029;-70
2021/10/19 04:49:23;;;;;;;18.98;15.18;;;;;;;-142.75;100.00;76889.19;4997982;28;19920;-72
2021/10/19 04:51:48;;;;;;;;;;;;;;;-142.75;100.00;76879.34;5011901;28;20101;-69
2021/10/19 04:54:14;;;;;;;21.95;16.02;;;;;;;-142.75;100.00;76887.22;5009918;28;19943;-70
2021/10/19 04:56:39;;;;;;;;;;;;;;;-142.75;100.00;76877.38;4997283;28;20407;-70
2021/10/19 04:59:04;;;;;;;21.63;17.35;;;;;;;-142.75;100.00;76865.56;4990395;28;19924;-69
2021/10/19 05:01:30;;;;;;;;;;;;;;;-142.75;100.00;76871.47;4992239;28;20034;-69
2021/10/19 05:03:55;;;;;;;25.50;18.33;;;;;;;-142.75;100.00;76861.63;4990642;28;19913;-70
2021/10/19 05:06:20;;;;;;;;;;;;;;;-142.75;100.00;76849.81;4992097;28;20041;-72
2021/10/19 05:08:46;;;;;;;24.50;17.77;;;;;;;-142.75;100.00;76857.69;5003882;28;19921;-70
2021/10/19 05:11:11;;;;;;;22.88;17.98;;;;;;;-142.75;100.00;76845.88;5009999;28;20495;-70
2021/10/19 05:13:36;;;;;;;;;;;;;;;-142.75;100.00;76832.09;5011470;28;20507;-71
2021/10/19 05:16:02;;;;;;;27.33;18.50;;;;;;;-142.75;100.00;76834.06;5010502;28;19921;-68
2021/10/19 05:18:28;;;;;;;25.00;18.80;;;;;;;-142.75;100.00;76830.13;4995751;28;20084;-70
2021/10/19 05:20:53;;;;;;;;;;;;;;;-142.75;100.00;76834.06;5004353;28;20520;-70
2021/10/19 05:23:18;;;;;;;27.77;20.52;;;;;;;-142.75;100.00;76847.84;5010881;28;19913;-70
2021/10/19 05:25:43;;;;;;;;;;;;;;;-142.75;100.00;76839.97;5011229;28;20026;-73
2021/10/19 05:28:09;;;;;;;27.90;20.65;;;;;;;-142.75;100.00;76836.03;5002866;28;20137;-70
2021/10/19 05:30:34;;;;;;;;;;;;;;;-142.75;100.00;76834.06;5011473;28;20032;-71
2021/10/19 05:33:03;;;;;;;32.65;22.95;;;;;;;-142.75;100.00;76830.13;5010905;28;19917;-69
2021/10/19 05:35:28;;;;;;;39.33;24.98;;;;;;;-142.75;100.00;76836.03;5010466;28;20103;-69
2021/10/19 05:37:54;;;;;;;35.38;24.70;;;;;;;-142.75;100.00;76839.97;5004311;28;20033;-70
2021/10/19 05:40:19;;;;;;;;;;;;;;;-142.75;100.00;76836.03;5011299;28;20026;-70
2021/10/19 05:42:45;;;;;;;37.28;23.90;;;;;;;-142.75;100.00;76834.06;5007497;28;20044;-70
2021/10/19 05:45:10;;;;;;;;;;;;;;;-142.75;100.00;76838.00;4990128;28;20033;-70
2021/10/19 05:47:35;;;;;;;35.70;24.63;;;;;;;-142.75;100.00;76838.00;4991119;28;19914;-72
2021/10/19 05:50:00;;;;;;;;;;;;;;;-142.75;100.00;76826.19;4993081;28;20057;-70
2021/10/19 05:52:26;;;;;;;35.75;24.90;;;;;;;-142.75;100.00;76830.13;4993887;28;19921;-71
2021/10/19 05:54:52;;;;;;;;;;;;;;;-142.75;100.00;76838.00;4990138;28;20027;-71
2021/10/19 05:57:17;;;;;;;36.08;24.15;;;;;;;-142.75;100.00;76826.19;4989691;28;20294;-70
2021/10/19 05:59:43;;;;;;;34.40;24.15;;;;;;;-142.75;100.00;76810.44;4996173;28;20487;-70
2021/10/19 06:02:08;;;;;;;37.38;25.52;;;;;;;-142.75;100.00;76810.44;5006663;28;20068;-70
2021/10/19 06:04:33;;;;;;;;;;;;;;;-142.75;100.00;76804.53;5010825;28;20037;-70
2021/10/19 06:07:00;;;;;;;37.67;24.80;;;;;;;-142.75;100.00;76806.50;5010932;28;19921;-73
2021/10/19 06:09:27;;;;;;;38.65;26.15;;;;;;;-142.75;100.00;76808.50;5000683;28;20037;-70
2021/10/19 06:11:53;;;;;;;36.90;26.02;;;;;;;-142.75;100.00;76802.56;4990948;28;20402;-71
2021/10/19 06:14:19;;;;;;;40.42;26.90;;;;;;;-142.75;100.00;76804.53;5003665;28;20112;-70
2021/10/19 06:16:44;;;;;;;39.15;27.77;;;;;;;-142.75;100.00;76804.53;5013150;28;20018;-70
2021/10/19 06:19:10;;;;;;;37.80;26.10;;;;;;;-142.75;100.00;76796.69;5014295;28;20036;-73
2021/10/19 06:21:35;;;;;;;;;;;;;;;-142.75;100.00;76802.56;5008571;28;20076;-71
2021/10/19 06:24:00;;;;;;;35.25;25.02;;;;;;;-142.75;100.00;76792.75;5002322;28;19952;-71
2021/10/19 06:26:25;;;;;;;;;;;;;;;-142.75;100.00;76790.78;5010955;28;20424;-71
2021/10/19 06:28:51;;;;;;;35.03;24.70;;;;;;;-142.75;100.00;76794.69;5007329;28;20426;-74
2021/10/19 06:31:16;;;;;;;;;;;;;;;-142.75;100.00;76792.75;5000506;28;20079;-73
2021/10/19 06:33:41;;;;;;;32.17;23.73;;;;;;;-142.75;100.00;76790.78;4992987;28;19953;-70
2021/10/19 06:36:06;;;;;;;;;;;;;;;-142.75;100.00;76796.69;5001773;28;20103;-73
2021/10/19 06:38:32;;;;;;;33.05;23.42;;;;;;;-142.75;100.00;76790.78;5010056;28;19920;-70
2021/10/19 06:40:57;;;;;;;;;;;;;;;-142.75;100.00;76794.69;4995171;28;20026;-70
2021/10/19 06:43:23;;;;;;;30.50;22.73;;;;;;;-142.75;100.00;76796.69;4999673;28;19914;-71
2021/10/19 06:45:48;;;;;;;;;;;;;;;-142.75;100.00;76800.63;4998585;28;20556;-71
2021/10/19 06:48:13;;;;;;;29.92;21.50;;;;;;;-142.75;100.00;76806.50;4994214;28;20003;-73
2021/10/19 06:50:38;;;;;;;;;;;;;;;-142.75;100.00;76786.84;5008063;28;20033;-71
2021/10/19 06:53:04;;;;;;;33.25;24.02;;;;;;;-142.75;100.00;76780.94;5013606;28;19940;-72
2021/10/19 06:55:29;;;;;;;33.05;24.58;;;;;;;-142.75;100.00;76794.69;5013304;28;20030;-70
2021/10/19 06:57:55;;;;;;;;;;;;;;;-142.75;100.00;76782.91;5014067;28;20034;-71
2021/10/19 07:00:20;;;;;;;35.53;26.00;;;;;;;-142.75;100.00;76800.63;4997840;28;20001;-72
2021/10/19 07:02:46;;;;;;;;;;;;;;;-142.75;100.00;76796.69;4994295;28;20022;-71
2021/10/19 07:05:11;;;;;;;33.78;25.40;;;;;;;-142.75;100.00;76786.84;4995724;28;19996;-71
2021/10/19 07:07:41;;;;;;;36.05;26.10;;;;;;;-142.75;100.00;76780.94;5012294;28;20060;-72
2021/10/19 07:10:07;;;;;;;37.30;27.20;;;;;;;-142.75;100.00;76780.94;5012153;28;20494;-70
2021/10/19 07:12:36;;;;;;;34.30;24.52;;;;;;;-142.75;100.00;76773.06;5013236;28;20101;-71
2021/10/19 07:15:01;;;;;;;34.53;24.90;;;;;;;-142.75;100.00;76790.78;5012975;28;20130;-72
2021/10/19 07:17:26;;;;;;;;;;;;;;;-142.75;100.00;76782.91;5013677;28;20109;-70
2021/10/19 07:19:52;;;;;;;37.53;25.10;;;;;;;-142.75;100.00;76780.94;5011905;28;19917;-71
2021/10/19 07:22:17;;;;;;;;;;;;;;;-142.75;100.00;76773.06;5013343;28;20048;-71
2021/10/19 07:24:42;;;;;;;34.47;24.23;;;;;;;-142.75;100.00;76778.97;5012833;28;19920;-71
2021/10/19 07:27:08;;;;;;;;;;;;;;;-142.75;100.00;76769.13;5004559;28;20022;-70
2021/10/19 07:29:34;;;;;;;32.83;23.35;;;;;;;-142.75;100.00;76765.19;5003995;28;19918;-69
2021/10/19 07:31:59;;;;;;;;;;;;;;;-142.75;100.00;76765.19;4993752;28;20053;-70
2021/10/19 07:34:24;;;;;;;34.70;24.02;;;;;;;-142.75;100.00;76765.19;5006065;28;19958;-71
2021/10/19 07:36:51;;;;;;;;;;;;;;;-142.75;100.00;76733.69;5005284;28;20041;-70
2021/10/19 07:39:16;;;;;;;34.03;23.48;;;;;;;-142.75;100.00;76755.34;5011688;28;19913;-71
2021/10/19 07:41:41;;;;;;;;;;;;;;;-142.75;100.00;76745.50;5013115;28;20621;-71
2021/10/19 07:44:07;;;;;;;31.48;22.25;;;;;;;-142.75;100.00;76739.59;4998307;28;19914;-70
2021/10/19 07:46:32;;;;;;;;;;;;;;;-142.75;100.00;76731.72;5000612;28;20018;-70
2021/10/19 07:48:57;;;;;;;29.15;21.38;;;;;;;-142.75;100.00;76729.75;4996004;28;20364;-72
2021/10/19 07:51:23;;;;;;;;;;;;;;;-142.75;100.00;76733.69;5003653;28;20057;-71
2021/10/19 07:53:48;;;;;;;31.88;24.42;;;;;;;-142.75;100.00;76735.66;5003982;28;20446;-71
2021/10/19 07:56:15;;;;;;;;;;;;;;;-142.75;100.00;76745.50;5001690;28;20030;-69
2021/10/19 07:58:41;;;;;;;26.67;20.70;;;;;;;-142.75;100.00;76739.59;5000764;28;20008;-70
2021/10/19 08:01:06;;;;;;;;;;;;;;;-142.75;100.00;76721.88;5000407;28;20026;-70
2021/10/19 08:03:32;;;;;;;23.33;18.45;;;;;;;-142.75;100.00;76729.75;5000054;28;19928;-71
2021/10/19 08:05:58;;;;;;;25.35;19.10;;;;;;;-142.75;100.00;76723.84;4999354;28;20037;-70
2021/10/19 08:08:23;;;;;;;;;;;;;;;-142.75;100.00;76715.97;5002330;28;20026;-71
2021/10/19 08:10:48;;;;;;;23.90;18.33;;;;;;;-142.75;100.00;76715.97;5000960;28;20307;-70
2021/10/19 08:13:14;;;;;;;;;;;;;;;-142.75;100.00;76714.00;5006370;28;20112;-70
2021/10/19 08:15:40;;;;;;;20.80;16.60;;;;;;;-142.75;100.00;76717.94;5002991;28;20008;-71
2021/10/19 08:18:06;;;;;;;;;;;;;;;-142.75;100.00;76708.09;5002132;28;20025;-71
2021/10/19 08:20:31;;;;;;;23.50;17.52;;;;;;;-142.75;100.00;76714.00;4999107;28;19931;-71
2021/10/19 08:22:56;;;;;;;;;;;;;;;-142.75;100.00;76708.09;5008663;28;20459;-70
2021/10/19 08:25:22;;;;;;;24.20;18.60;;;;;;;-142.75;100.00;76702.19;4999226;28;20022;-72
2021/10/19 08:27:47;;;;;;;;;;;;;;;-142.75;100.00;76704.16;4997297;28;20057;-70
2021/10/19 08:30:16;;;;;;;25.42;18.98;;;;;;;-142.75;100.00;76719.91;4997933;28;19925;-70
2021/10/19 08:32:42;;;;;;;27.20;20.15;;;;;;;-142.75;100.00;76725.81;5003414;28;20030;-71
2021/10/19 08:35:08;;;;;;;;;;;;;;;-142.75;100.00;76708.09;5007062;28;20026;-71
2021/10/19 08:37:33;;;;;;;28.77;21.13;;;;;;;-142.75;100.00;76700.22;4999469;28;19963;-70
2021/10/19 08:39:59;;;;;;;;;;;;;;;-142.75;100.00;76704.16;5003244;28;20038;-71
2021/10/19 08:42:24;;;;;;;30.42;20.50;;;;;;;-142.75;100.00;76712.03;5001781;28;19913;-70
2021/10/19 08:44:49;;;;;;;;;;;;;;;-142.75;100.00;76696.28;5007099;28;20045;-72
2021/10/19 08:47:15;;;;;;;29.80;20.95;;;;;;;-142.75;100.00;76692.34;4998658;28;19913;-70
2021/10/19 08:49:41;;;;;;;;;;;;;;;-142.75;100.00;76704.16;5002236;28;20041;-69
2021/10/19 08:52:07;;;;;;;24.05;19.55;;;;;;;-142.75;100.00;76686.44;4998774;28;19914;-71
2021/10/19 08:54:32;;;;;;;;;;;;;;;-142.75;100.00;76680.53;4999337;28;20037;-72
2021/10/19 08:56:57;;;;;;;25.63;18.10;;;;;;;-142.75;100.00;76688.41;5002420;28;20387;-70
2021/10/19 08:59:23;;;;;;;;;;;;;;;-142.75;100.00;76684.47;4999817;28;20069;-72
2021/10/19 09:01:49;;;;;;;25.10;17.45;;;;;;;-142.75;100.00;76684.47;4996631;28;20124;-71
2021/10/19 09:04:14;;;;;;;27.17;19.00;;;;;;;-142.75;100.00;76680.53;4997747;28;20759;-71
2021/10/19 09:06:42;;;;;;;30.60;20.63;;;;;;;-142.75;100.00;76682.50;4990524;28;20054;-72
2021/10/19 09:09:13;;;;;;;29.10;19.42;;;;;;;-142.75;100.00;76676.59;4991839;28;20030;-71
2021/10/19 09:11:46;;;;;;;28.90;19.75;;;;;;;-142.75;100.00;76680.53;4995784;28;20065;-70
2021/10/19 09:14:12;;;;;;;27.25;20.98;;;;;;;-142.75;100.00;76682.50;4999659;28;20112;-71
2021/10/19 09:16:46;;;;;;;32.08;22.88;;;;;;;-142.75;100.00;76668.72;5001363;28;20081;-72
2021/10/19 09:19:15;;;;;;;29.33;21.27;;;;;;;-142.75;100.00;76660.84;4998060;28;20033;-70
2021/10/19 09:21:44;;;;;;;32.15;21.65;;;;;;;-142.75;100.00;76664.78;4995977;28;20027;-70
2021/10/19 09:24:32;;;;;;;31.17;21.13;;;;;;;-142.75;100.00;76647.06;5000953;28;20572;-69
2021/10/19 09:27:01;;;;;;;30.98;21.23;;;;;;;-142.75;100.00;76651.00;4998624;28;20029;-70
2021/10/19 09:29:29;;;;;;;31.65;22.50;;;;;;;-142.75;100.00;76652.97;5002779;28;20041;-70
2021/10/19 09:31:57;;;;;;;30.67;22.13;;;;;;;-142.75;100.00;76645.09;5002899;28;20026;-69
2021/10/19 09:34:28;;;;;;;31.60;22.35;;;;;;;-142.75;100.00;76647.06;4990181;28;20026;-68
2021/10/19 09:36:53;;;;;;;28.50;20.35;;;;;;;-142.75;100.00;76645.09;4998953;28;20460;-71
2021/10/19 09:39:48;;;;;;;;;;;;;;;-142.75;100.00;76629.34;5000544;28;20021;-68
2021/10/19 09:42:26;;;;;;;30.88;21.88;;;;;;;-142.75;100.00;76627.38;4983658;28;20614;-69
2021/10/19 09:44:58;;;;;;;31.40;22.15;;;;;;;-142.75;100.00;76629.34;4998526;28;20396;-70
2021/10/19 09:47:36;;;;;;;31.85;22.00;;;;;;;-142.75;100.00;76619.50;4998341;28;20014;-72
2021/10/19 09:50:03;;;;;;;33.28;21.75;;;;;;;-142.75;100.00;76609.66;4997674;28;20109;-69
2021/10/19 09:52:30;;;;;;;32.42;21.42;;;;;;;-142.75;100.00;76609.66;5005600;28;20033;-69
2021/10/19 09:54:56;;;;;;;31.42;21.95;;;;;;;-142.75;100.00;76609.66;5000689;28;20033;-70
2021/10/19 09:57:21;;;;;;;31.50;21.02;;;;;;;-142.75;100.00;76615.56;5004950;28;20042;-70
2021/10/19 09:59:47;;;;;;;32.55;22.25;;;;;;;-142.75;100.00;76601.78;5006334;28;20095;-72
2021/10/19 10:02:15;;;;;;;;;;;;;;;-142.75;100.00;76595.88;5005348;28;20032;-71
2021/10/19 10:04:42;;;;;;;29.17;20.52;;;;;;;-142.75;100.00;76593.91;5002906;28;19921;-73
2021/10/19 10:07:10;;;;;;;33.80;19.83;;;;;;;-142.75;100.00;76589.97;5004375;28;20085;-71
2021/10/19 10:09:37;;;;;;;28.38;20.00;;;;;;;-142.75;100.00;76591.94;5006139;28;20492;-69
2021/10/19 10:12:07;;;;;;;30.02;21.35;;;;;;;-142.75;100.00;76599.81;4999967;28;20034;-69
2021/10/19 10:14:45;;;;;;;32.15;21.80;;;;;;;-142.75;100.00;76597.84;5004072;28;20034;-70
2021/10/19 10:17:11;;;;;;;26.80;19.92;;;;;;;-142.75;100.00;76586.03;5010872;28;20032;-71
2021/10/19 10:19:37;;;;;;;30.17;20.15;;;;;;;-142.75;100.00;76593.91;5004706;28;20030;-70
2021/10/19 10:22:13;;;;;;;;;;;;;;;-142.75;100.00;76584.06;5006207;28;20108;-71
2021/10/19 10:24:39;;;;;;;35.47;21.25;;;;;;;-142.75;100.00;76607.69;5004461;28;19914;-70
2021/10/19 10:27:11;;;;;;;33.50;23.60;;;;;;;-142.75;100.00;76609.66;5004492;28;20152;-70
2021/10/19 10:29:44;;;;;;;36.90;24.77;;;;;;;-142.75;100.00;76605.72;5004538;28;20026;-70
2021/10/19 10:32:37;;;;;;;38.30;24.25;;;;;;;-142.75;100.00;76609.66;5001144;28;20668;-70
2021/10/19 10:35:06;;;;;;;38.70;23.98;;;;;;;-142.75;100.00;76601.78;5002914;28;20104;-70
2021/10/19 10:37:50;;;;;;;37.75;24.95;;;;;;;-142.75;100.00;76586.03;5000845;28;20404;-71
2021/10/19 10:40:31;;;;;;;41.30;26.15;;;;;;;-142.75;100.00;76576.19;5003993;28;20030;-70
2021/10/19 10:42:59;;;;;;;37.22;25.40;;;;;;;-142.75;100.00;76574.22;5000997;28;20030;-70
2021/10/19 10:45:32;;;;;;;40.83;24.92;;;;;;;-142.75;100.00;76566.34;5003253;28;20479;-71
2021/10/19 10:48:01;;;;;;;35.25;24.20;;;;;;;-142.75;100.00;76556.50;5004368;28;20088;-70
2021/10/19 10:50:30;;;;;;;38.97;22.95;;;;;;;-142.75;100.00;76556.50;5004922;28;20077;-71
2021/10/19 10:53:02;;;;;;;28.92;20.48;;;;;;;-142.75;100.00;76550.59;5004835;28;20038;-71
2021/10/19 10:55:32;;;;;;;28.73;20.00;;;;;;;-142.75;100.00;76546.66;5001822;28;20033;-70
2021/10/19 10:57:58;;;;;;;30.90;20.88;;;;;;;-142.75;100.00;76544.69;5003825;28;20068;-71
2021/10/19 11:00:25;;;;;;;29.45;20.38;;;;;;;-142.75;100.00;76532.88;5003077;28;20437;-70
2021/10/19 11:02:50;;;;;;;36.67;19.85;;;;;;;-142.75;100.00;76550.59;5006905;28;20042;-71
2021/10/19 11:05:16;;;;;;;24.73;19.48;;;;;;;-142.75;100.00;76534.84;5007326;28;20022;-71
2021/10/19 11:07:42;;;;;;;;;;;;;;;-142.75;100.00;76519.13;5001277;28;20030;-72
2021/10/19 11:10:11;;;;;;;25.50;16.27;;;;;;;-142.75;100.00;76528.97;5000662;28;19933;-71
2021/10/19 11:12:37;;;;;;;27.15;17.55;;;;;;;-142.75;100.00;76534.84;5004488;28;20037;-70